sensor_id;sensor_type;location;lat;lon;timestamp;P1;durP1;ratioP1;P2;durP2;ratioP2
25962;SDS011;13760;52.588;13.406;2024-02-26T00:00:31;36.33;;;22.52;;
25962;SDS011;13760;52.588;13.406;2024-02-26T00:02:57;33.63;;;21.38;;
25962;SDS011;13760;52.588;13.406;2024-02-26T00:05:22;36.03;;;19.40;;
25962;SDS011;13760;52.588;13.406;2024-02-26T00:07:48;33.30;;;20.30;;
25962;SDS011;13760;52.588;13.406;2024-02-26T00:10:14;31.25;;;20.30;;
25962;SDS011;13760;52.588;13.406;2024-02-26T00:12:39;34.90;;;22.63;;
25962;SDS011;13760;52.588;13.406;2024-02-26T00:15:06;31.63;;;20.80;;
25962;SDS011;13760;52.588;13.406;2024-02-26T00:17:32;29.42;;;18.90;;
25962;SDS011;13760;52.588;13.406;2024-02-26T00:19:57;28.92;;;18.90;;
25962;SDS011;13760;52.588;13.406;2024-02-26T00:22:23;28.30;;;18.17;;
25962;SDS011;13760;52.588;13.406;2024-02-26T00:24:48;26.15;;;17.02;;
25962;SDS011;13760;52.588;13.406;2024-02-26T00:27:14;27.25;;;17.38;;
25962;SDS011;13760;52.588;13.406;2024-02-26T00:29:40;26.20;;;17.52;;
25962;SDS011;13760;52.588;13.406;2024-02-26T00:32:05;24.77;;;16.50;;
25962;SDS011;13760;52.588;13.406;2024-02-26T00:34:31;23.70;;;16.63;;
25962;SDS011;13760;52.588;13.406;2024-02-26T00:36:56;24.17;;;16.25;;
25962;SDS011;13760;52.588;13.406;2024-02-26T00:39:22;24.55;;;15.55;;
25962;SDS011;13760;52.588;13.406;2024-02-26T00:41:48;27.00;;;15.98;;
25962;SDS011;13760;52.588;13.406;2024-02-26T00:44:13;23.70;;;16.08;;
25962;SDS011;13760;52.588;13.406;2024-02-26T00:46:39;26.40;;;16.00;;
25962;SDS011;13760;52.588;13.406;2024-02-26T00:49:04;23.35;;;15.43;;
25962;SDS011;13760;52.588;13.406;2024-02-26T00:51:30;23.95;;;16.45;;
25962;SDS011;13760;52.588;13.406;2024-02-26T00:53:56;23.10;;;16.33;;
25962;SDS011;13760;52.588;13.406;2024-02-26T00:56:21;26.05;;;16.75;;
25962;SDS011;13760;52.588;13.406;2024-02-26T00:58:47;26.35;;;15.80;;
25962;SDS011;13760;52.588;13.406;2024-02-26T01:01:12;23.48;;;14.80;;
25962;SDS011;13760;52.588;13.406;2024-02-26T01:03:38;24.08;;;16.15;;
25962;SDS011;13760;52.588;13.406;2024-02-26T01:06:04;22.92;;;16.02;;
25962;SDS011;13760;52.588;13.406;2024-02-26T01:08:29;24.63;;;15.30;;
25962;SDS011;13760;52.588;13.406;2024-02-26T01:10:56;23.00;;;15.70;;
25962;SDS011;13760;52.588;13.406;2024-02-26T01:13:22;23.80;;;16.20;;
25962;SDS011;13760;52.588;13.406;2024-02-26T01:15:47;22.40;;;16.08;;
25962;SDS011;13760;52.588;13.406;2024-02-26T01:18:13;22.80;;;15.18;;
25962;SDS011;13760;52.588;13.406;2024-02-26T01:20:39;22.73;;;15.05;;
25962;SDS011;13760;52.588;13.406;2024-02-26T01:23:04;20.38;;;14.80;;
25962;SDS011;13760;52.588;13.406;2024-02-26T01:25:30;22.90;;;15.07;;
25962;SDS011;13760;52.588;13.406;2024-02-26T01:27:56;22.88;;;14.80;;
25962;SDS011;13760;52.588;13.406;2024-02-26T01:30:21;21.67;;;13.98;;
25962;SDS011;13760;52.588;13.406;2024-02-26T01:32:47;21.70;;;13.88;;
25962;SDS011;13760;52.588;13.406;2024-02-26T01:35:13;21.58;;;13.55;;
25962;SDS011;13760;52.588;13.406;2024-02-26T01:37:38;19.75;;;13.30;;
25962;SDS011;13760;52.588;13.406;2024-02-26T01:40:05;21.77;;;13.40;;
25962;SDS011;13760;52.588;13.406;2024-02-26T01:42:31;22.83;;;13.43;;
25962;SDS011;13760;52.588;13.406;2024-02-26T01:44:57;20.15;;;13.52;;
25962;SDS011;13760;52.588;13.406;2024-02-26T01:47:23;21.45;;;13.25;;
25962;SDS011;13760;52.588;13.406;2024-02-26T01:49:50;20.52;;;13.65;;
25962;SDS011;13760;52.588;13.406;2024-02-26T01:52:15;21.10;;;13.30;;
25962;SDS011;13760;52.588;13.406;2024-02-26T01:54:42;16.63;;;12.27;;
25962;SDS011;13760;52.588;13.406;2024-02-26T01:57:10;20.98;;;12.52;;
25962;SDS011;13760;52.588;13.406;2024-02-26T01:59:37;19.08;;;13.05;;
25962;SDS011;13760;52.588;13.406;2024-02-26T02:02:05;18.75;;;12.75;;
25962;SDS011;13760;52.588;13.406;2024-02-26T02:04:32;21.73;;;13.77;;
25962;SDS011;13760;52.588;13.406;2024-02-26T02:06:58;18.73;;;13.07;;
25962;SDS011;13760;52.588;13.406;2024-02-26T02:09:26;20.10;;;12.85;;
25962;SDS011;13760;52.588;13.406;2024-02-26T02:11:52;18.35;;;13.25;;
25962;SDS011;13760;52.588;13.406;2024-02-26T02:14:18;19.58;;;11.93;;
25962;SDS011;13760;52.588;13.406;2024-02-26T02:16:44;18.90;;;12.30;;
25962;SDS011;13760;52.588;13.406;2024-02-26T02:19:09;16.75;;;12.00;;
25962;SDS011;13760;52.588;13.406;2024-02-26T02:21:35;16.90;;;11.77;;
25962;SDS011;13760;52.588;13.406;2024-02-26T02:24:00;17.40;;;12.52;;
25962;SDS011;13760;52.588;13.406;2024-02-26T02:26:26;18.33;;;12.35;;
25962;SDS011;13760;52.588;13.406;2024-02-26T02:28:51;19.55;;;13.38;;
25962;SDS011;13760;52.588;13.406;2024-02-26T02:31:18;23.70;;;14.43;;
25962;SDS011;13760;52.588;13.406;2024-02-26T02:33:44;18.35;;;12.32;;
25962;SDS011;13760;52.588;13.406;2024-02-26T02:36:09;18.85;;;12.20;;
25962;SDS011;13760;52.588;13.406;2024-02-26T02:38:36;19.95;;;12.95;;
25962;SDS011;13760;52.588;13.406;2024-02-26T02:41:02;16.58;;;11.93;;
25962;SDS011;13760;52.588;13.406;2024-02-26T02:43:28;18.33;;;11.55;;
25962;SDS011;13760;52.588;13.406;2024-02-26T02:45:53;18.55;;;11.52;;
25962;SDS011;13760;52.588;13.406;2024-02-26T02:48:19;17.65;;;11.30;;
25962;SDS011;13760;52.588;13.406;2024-02-26T02:50:45;19.58;;;11.82;;
25962;SDS011;13760;52.588;13.406;2024-02-26T02:53:10;16.73;;;11.52;;
25962;SDS011;13760;52.588;13.406;2024-02-26T02:55:36;17.90;;;10.85;;
25962;SDS011;13760;52.588;13.406;2024-02-26T02:58:01;17.25;;;11.48;;
25962;SDS011;13760;52.588;13.406;2024-02-26T03:00:27;18.45;;;11.98;;
25962;SDS011;13760;52.588;13.406;2024-02-26T03:02:52;18.63;;;11.35;;
25962;SDS011;13760;52.588;13.406;2024-02-26T03:05:18;16.58;;;11.57;;
25962;SDS011;13760;52.588;13.406;2024-02-26T03:07:44;16.13;;;11.10;;
25962;SDS011;13760;52.588;13.406;2024-02-26T03:10:09;17.42;;;11.25;;
25962;SDS011;13760;52.588;13.406;2024-02-26T03:12:35;19.40;;;10.73;;
25962;SDS011;13760;52.588;13.406;2024-02-26T03:15:01;16.85;;;10.75;;
25962;SDS011;13760;52.588;13.406;2024-02-26T03:17:28;14.32;;;10.27;;
25962;SDS011;13760;52.588;13.406;2024-02-26T03:19:53;14.20;;;10.55;;
25962;SDS011;13760;52.588;13.406;2024-02-26T03:22:20;15.95;;;10.00;;
25962;SDS011;13760;52.588;13.406;2024-02-26T03:24:46;14.65;;;10.15;;
25962;SDS011;13760;52.588;13.406;2024-02-26T03:27:11;15.45;;;10.40;;
25962;SDS011;13760;52.588;13.406;2024-02-26T03:29:37;14.48;;;10.18;;
25962;SDS011;13760;52.588;13.406;2024-02-26T03:32:03;15.23;;;10.55;;
25962;SDS011;13760;52.588;13.406;2024-02-26T03:34:30;14.20;;;10.43;;
25962;SDS011;13760;52.588;13.406;2024-02-26T03:36:56;14.95;;;10.00;;
25962;SDS011;13760;52.588;13.406;2024-02-26T03:39:22;14.57;;;10.07;;
25962;SDS011;13760;52.588;13.406;2024-02-26T03:41:47;14.82;;;10.38;;
25962;SDS011;13760;52.588;13.406;2024-02-26T03:44:13;17.88;;;11.23;;
25962;SDS011;13760;52.588;13.406;2024-02-26T03:46:39;13.73;;;9.88;;
25962;SDS011;13760;52.588;13.406;2024-02-26T03:49:07;15.18;;;9.77;;
25962;SDS011;13760;52.588;13.406;2024-02-26T03:51:33;14.07;;;9.77;;
25962;SDS011;13760;52.588;13.406;2024-02-26T03:53:59;15.82;;;9.95;;
25962;SDS011;13760;52.588;13.406;2024-02-26T03:56:25;15.05;;;9.95;;
25962;SDS011;13760;52.588;13.406;2024-02-26T03:58:51;12.95;;;9.88;;
25962;SDS011;13760;52.588;13.406;2024-02-26T04:01:17;14.38;;;9.77;;
25962;SDS011;13760;52.588;13.406;2024-02-26T04:03:42;15.13;;;9.60;;
25962;SDS011;13760;52.588;13.406;2024-02-26T04:06:09;15.82;;;9.38;;
25962;SDS011;13760;52.588;13.406;2024-02-26T04:08:43;15.05;;;9.55;;
25962;SDS011;13760;52.588;13.406;2024-02-26T04:11:08;13.55;;;9.85;;
25962;SDS011;13760;52.588;13.406;2024-02-26T04:13:34;14.25;;;9.70;;
25962;SDS011;13760;52.588;13.406;2024-02-26T04:16:00;14.57;;;10.05;;
25962;SDS011;13760;52.588;13.406;2024-02-26T04:18:28;16.13;;;9.75;;
25962;SDS011;13760;52.588;13.406;2024-02-26T04:20:54;18.98;;;10.45;;
25962;SDS011;13760;52.588;13.406;2024-02-26T04:23:20;19.95;;;10.95;;
25962;SDS011;13760;52.588;13.406;2024-02-26T04:25:45;13.57;;;9.27;;
25962;SDS011;13760;52.588;13.406;2024-02-26T04:28:11;14.60;;;9.45;;
25962;SDS011;13760;52.588;13.406;2024-02-26T04:30:37;14.98;;;10.18;;
25962;SDS011;13760;52.588;13.406;2024-02-26T04:33:03;17.00;;;10.55;;
25962;SDS011;13760;52.588;13.406;2024-02-26T04:35:29;16.35;;;10.95;;
25962;SDS011;13760;52.588;13.406;2024-02-26T04:37:54;14.43;;;9.90;;
25962;SDS011;13760;52.588;13.406;2024-02-26T04:40:20;14.05;;;10.13;;
25962;SDS011;13760;52.588;13.406;2024-02-26T04:42:45;18.30;;;11.20;;
25962;SDS011;13760;52.588;13.406;2024-02-26T04:45:11;14.05;;;9.80;;
25962;SDS011;13760;52.588;13.406;2024-02-26T04:47:37;16.48;;;9.85;;
25962;SDS011;13760;52.588;13.406;2024-02-26T04:50:03;17.17;;;10.27;;
25962;SDS011;13760;52.588;13.406;2024-02-26T04:52:29;14.05;;;9.90;;
25962;SDS011;13760;52.588;13.406;2024-02-26T04:54:54;15.60;;;10.48;;
25962;SDS011;13760;52.588;13.406;2024-02-26T04:57:21;16.77;;;10.10;;
25962;SDS011;13760;52.588;13.406;2024-02-26T04:59:46;15.55;;;10.48;;
25962;SDS011;13760;52.588;13.406;2024-02-26T05:02:12;16.42;;;11.10;;
25962;SDS011;13760;52.588;13.406;2024-02-26T05:04:38;15.85;;;10.70;;
25962;SDS011;13760;52.588;13.406;2024-02-26T05:07:04;16.38;;;10.50;;
25962;SDS011;13760;52.588;13.406;2024-02-26T05:09:29;21.40;;;12.18;;
25962;SDS011;13760;52.588;13.406;2024-02-26T05:11:58;16.05;;;10.70;;
25962;SDS011;13760;52.588;13.406;2024-02-26T05:17:35;18.35;;;11.88;;
25962;SDS011;13760;52.588;13.406;2024-02-26T05:20:01;15.40;;;10.88;;
25962;SDS011;13760;52.588;13.406;2024-02-26T05:22:27;19.88;;;11.75;;
25962;SDS011;13760;52.588;13.406;2024-02-26T05:24:52;21.67;;;13.10;;
25962;SDS011;13760;52.588;13.406;2024-02-26T05:27:18;16.35;;;11.68;;
25962;SDS011;13760;52.588;13.406;2024-02-26T05:29:44;17.88;;;11.88;;
25962;SDS011;13760;52.588;13.406;2024-02-26T05:32:10;20.55;;;12.60;;
25962;SDS011;13760;52.588;13.406;2024-02-26T05:34:35;18.88;;;11.32;;
25962;SDS011;13760;52.588;13.406;2024-02-26T05:37:01;20.67;;;11.90;;
25962;SDS011;13760;52.588;13.406;2024-02-26T05:39:26;16.92;;;10.75;;
25962;SDS011;13760;52.588;13.406;2024-02-26T05:41:52;17.48;;;11.68;;
25962;SDS011;13760;52.588;13.406;2024-02-26T05:44:17;17.98;;;11.80;;
25962;SDS011;13760;52.588;13.406;2024-02-26T05:46:43;19.70;;;12.27;;
25962;SDS011;13760;52.588;13.406;2024-02-26T05:49:08;19.73;;;11.95;;
25962;SDS011;13760;52.588;13.406;2024-02-26T05:51:34;18.15;;;11.52;;
25962;SDS011;13760;52.588;13.406;2024-02-26T05:53:59;19.42;;;12.23;;
25962;SDS011;13760;52.588;13.406;2024-02-26T05:56:26;18.67;;;13.02;;
25962;SDS011;13760;52.588;13.406;2024-02-26T05:58:51;18.83;;;12.02;;
25962;SDS011;13760;52.588;13.406;2024-02-26T06:01:17;18.90;;;12.02;;
25962;SDS011;13760;52.588;13.406;2024-02-26T06:03:43;21.95;;;12.32;;
25962;SDS011;13760;52.588;13.406;2024-02-26T06:06:10;17.13;;;11.52;;
25962;SDS011;13760;52.588;13.406;2024-02-26T06:08:36;19.15;;;11.60;;
25962;SDS011;13760;52.588;13.406;2024-02-26T06:11:05;20.63;;;12.32;;
25962;SDS011;13760;52.588;13.406;2024-02-26T06:13:32;24.38;;;14.05;;
25962;SDS011;13760;52.588;13.406;2024-02-26T06:15:57;21.60;;;13.35;;
25962;SDS011;13760;52.588;13.406;2024-02-26T06:18:23;23.50;;;14.20;;
25962;SDS011;13760;52.588;13.406;2024-02-26T06:20:51;23.13;;;13.80;;
25962;SDS011;13760;52.588;13.406;2024-02-26T06:23:45;25.70;;;14.40;;
25962;SDS011;13760;52.588;13.406;2024-02-26T06:26:26;21.75;;;13.15;;
25962;SDS011;13760;52.588;13.406;2024-02-26T06:29:08;19.23;;;12.88;;
25962;SDS011;13760;52.588;13.406;2024-02-26T06:31:34;24.23;;;13.85;;
25962;SDS011;13760;52.588;13.406;2024-02-26T06:33:59;23.60;;;13.02;;
25962;SDS011;13760;52.588;13.406;2024-02-26T06:36:25;23.25;;;13.75;;
25962;SDS011;13760;52.588;13.406;2024-02-26T06:38:50;27.15;;;14.10;;
25962;SDS011;13760;52.588;13.406;2024-02-26T06:41:18;26.83;;;13.70;;
25962;SDS011;13760;52.588;13.406;2024-02-26T06:43:44;22.15;;;13.05;;
25962;SDS011;13760;52.588;13.406;2024-02-26T06:46:10;19.80;;;13.55;;
25962;SDS011;13760;52.588;13.406;2024-02-26T06:48:35;22.40;;;13.77;;
25962;SDS011;13760;52.588;13.406;2024-02-26T06:51:02;22.02;;;14.02;;
25962;SDS011;13760;52.588;13.406;2024-02-26T06:53:27;26.27;;;14.45;;
25962;SDS011;13760;52.588;13.406;2024-02-26T06:55:53;22.80;;;14.02;;
25962;SDS011;13760;52.588;13.406;2024-02-26T06:58:19;26.63;;;13.43;;
25962;SDS011;13760;52.588;13.406;2024-02-26T07:00:44;28.00;;;14.57;;
25962;SDS011;13760;52.588;13.406;2024-02-26T07:03:11;23.15;;;13.75;;
25962;SDS011;13760;52.588;13.406;2024-02-26T07:05:36;26.73;;;14.88;;
25962;SDS011;13760;52.588;13.406;2024-02-26T07:08:02;23.75;;;13.70;;
25962;SDS011;13760;52.588;13.406;2024-02-26T07:10:28;24.98;;;13.77;;
25962;SDS011;13760;52.588;13.406;2024-02-26T07:12:53;23.88;;;15.15;;
25962;SDS011;13760;52.588;13.406;2024-02-26T07:15:19;28.15;;;15.40;;
25962;SDS011;13760;52.588;13.406;2024-02-26T07:17:44;28.83;;;15.13;;
25962;SDS011;13760;52.588;13.406;2024-02-26T07:20:15;28.80;;;16.23;;
25962;SDS011;13760;52.588;13.406;2024-02-26T07:22:43;27.33;;;14.98;;
25962;SDS011;13760;52.588;13.406;2024-02-26T07:25:09;26.65;;;14.80;;
25962;SDS011;13760;52.588;13.406;2024-02-26T07:27:38;26.05;;;17.10;;
25962;SDS011;13760;52.588;13.406;2024-02-26T07:30:11;28.05;;;16.98;;
25962;SDS011;13760;52.588;13.406;2024-02-26T07:32:43;33.40;;;19.10;;
25962;SDS011;13760;52.588;13.406;2024-02-26T07:35:09;29.50;;;17.02;;
25962;SDS011;13760;52.588;13.406;2024-02-26T07:37:35;30.73;;;18.23;;
25962;SDS011;13760;52.588;13.406;2024-02-26T07:40:01;35.03;;;19.65;;
25962;SDS011;13760;52.588;13.406;2024-02-26T07:42:26;33.95;;;19.85;;
25962;SDS011;13760;52.588;13.406;2024-02-26T07:44:52;29.55;;;19.25;;
25962;SDS011;13760;52.588;13.406;2024-02-26T07:47:18;32.97;;;19.27;;
25962;SDS011;13760;52.588;13.406;2024-02-26T07:49:44;29.52;;;19.10;;
25962;SDS011;13760;52.588;13.406;2024-02-26T07:52:10;37.25;;;20.40;;
25962;SDS011;13760;52.588;13.406;2024-02-26T07:54:47;30.52;;;19.98;;
25962;SDS011;13760;52.588;13.406;2024-02-26T07:57:23;33.13;;;20.90;;
25962;SDS011;13760;52.588;13.406;2024-02-26T07:59:48;32.05;;;20.15;;
25962;SDS011;13760;52.588;13.406;2024-02-26T08:02:15;32.72;;;20.13;;
25962;SDS011;13760;52.588;13.406;2024-02-26T08:05:03;33.92;;;20.80;;
25962;SDS011;13760;52.588;13.406;2024-02-26T08:07:48;35.65;;;19.85;;
25962;SDS011;13760;52.588;13.406;2024-02-26T08:10:20;34.83;;;20.33;;
25962;SDS011;13760;52.588;13.406;2024-02-26T08:12:45;32.70;;;20.67;;
25962;SDS011;13760;52.588;13.406;2024-02-26T08:15:11;31.92;;;20.20;;
25962;SDS011;13760;52.588;13.406;2024-02-26T08:17:37;29.85;;;21.27;;
25962;SDS011;13760;52.588;13.406;2024-02-26T08:20:03;30.15;;;20.75;;
25962;SDS011;13760;52.588;13.406;2024-02-26T08:22:29;33.42;;;20.90;;
25962;SDS011;13760;52.588;13.406;2024-02-26T08:24:55;38.00;;;19.83;;
25962;SDS011;13760;52.588;13.406;2024-02-26T08:27:20;31.38;;;20.67;;
25962;SDS011;13760;52.588;13.406;2024-02-26T08:29:46;33.58;;;20.15;;
25962;SDS011;13760;52.588;13.406;2024-02-26T08:32:11;36.90;;;19.63;;
25962;SDS011;13760;52.588;13.406;2024-02-26T08:34:37;29.85;;;20.05;;
25962;SDS011;13760;52.588;13.406;2024-02-26T08:37:02;28.45;;;19.25;;
25962;SDS011;13760;52.588;13.406;2024-02-26T08:39:28;28.45;;;19.85;;
25962;SDS011;13760;52.588;13.406;2024-02-26T08:41:54;29.35;;;18.55;;
25962;SDS011;13760;52.588;13.406;2024-02-26T08:44:19;33.67;;;19.00;;
25962;SDS011;13760;52.588;13.406;2024-02-26T08:46:45;26.95;;;19.58;;
25962;SDS011;13760;52.588;13.406;2024-02-26T08:49:11;31.42;;;21.17;;
25962;SDS011;13760;52.588;13.406;2024-02-26T08:51:41;29.05;;;20.13;;
25962;SDS011;13760;52.588;13.406;2024-02-26T08:56:33;28.35;;;19.10;;
25962;SDS011;13760;52.588;13.406;2024-02-26T08:58:59;27.50;;;19.40;;
25962;SDS011;13760;52.588;13.406;2024-02-26T09:01:28;32.72;;;20.33;;
25962;SDS011;13760;52.588;13.406;2024-02-26T09:03:54;29.42;;;19.65;;
25962;SDS011;13760;52.588;13.406;2024-02-26T09:06:21;29.52;;;19.15;;
25962;SDS011;13760;52.588;13.406;2024-02-26T09:08:46;27.23;;;19.40;;
25962;SDS011;13760;52.588;13.406;2024-02-26T09:11:12;27.30;;;19.70;;
25962;SDS011;13760;52.588;13.406;2024-02-26T09:13:37;27.48;;;19.02;;
25962;SDS011;13760;52.588;13.406;2024-02-26T09:16:03;24.33;;;18.10;;
25962;SDS011;13760;52.588;13.406;2024-02-26T09:18:29;28.17;;;19.02;;
25962;SDS011;13760;52.588;13.406;2024-02-26T09:20:55;26.80;;;18.20;;
25962;SDS011;13760;52.588;13.406;2024-02-26T09:23:21;26.08;;;19.27;;
25962;SDS011;13760;52.588;13.406;2024-02-26T09:25:46;27.67;;;19.75;;
25962;SDS011;13760;52.588;13.406;2024-02-26T09:28:12;23.45;;;17.73;;
25962;SDS011;13760;52.588;13.406;2024-02-26T09:30:37;26.27;;;19.25;;
25962;SDS011;13760;52.588;13.406;2024-02-26T09:33:03;26.38;;;17.15;;
25962;SDS011;13760;52.588;13.406;2024-02-26T09:35:29;25.60;;;16.73;;
25962;SDS011;13760;52.588;13.406;2024-02-26T09:37:55;28.58;;;17.60;;
25962;SDS011;13760;52.588;13.406;2024-02-26T09:40:21;23.92;;;16.58;;
25962;SDS011;13760;52.588;13.406;2024-02-26T09:42:47;25.58;;;17.83;;
25962;SDS011;13760;52.588;13.406;2024-02-26T09:45:17;25.55;;;17.67;;
25962;SDS011;13760;52.588;13.406;2024-02-26T09:47:45;26.17;;;18.00;;
25962;SDS011;13760;52.588;13.406;2024-02-26T09:50:14;27.92;;;17.92;;
25962;SDS011;13760;52.588;13.406;2024-02-26T09:52:42;24.33;;;17.17;;
25962;SDS011;13760;52.588;13.406;2024-02-26T09:55:08;26.95;;;17.73;;
25962;SDS011;13760;52.588;13.406;2024-02-26T09:57:36;30.50;;;17.45;;
25962;SDS011;13760;52.588;13.406;2024-02-26T10:00:02;23.05;;;16.63;;
25962;SDS011;13760;52.588;13.406;2024-02-26T10:02:30;23.33;;;17.20;;
25962;SDS011;13760;52.588;13.406;2024-02-26T10:04:58;25.52;;;17.33;;
25962;SDS011;13760;52.588;13.406;2024-02-26T10:07:26;26.67;;;16.70;;
25962;SDS011;13760;52.588;13.406;2024-02-26T10:09:54;24.00;;;16.67;;
25962;SDS011;13760;52.588;13.406;2024-02-26T10:12:20;23.75;;;16.00;;
25962;SDS011;13760;52.588;13.406;2024-02-26T10:14:47;22.08;;;15.27;;
25962;SDS011;13760;52.588;13.406;2024-02-26T10:17:12;24.40;;;16.27;;
25962;SDS011;13760;52.588;13.406;2024-02-26T10:19:38;22.38;;;15.73;;
25962;SDS011;13760;52.588;13.406;2024-02-26T10:22:04;21.95;;;15.98;;
25962;SDS011;13760;52.588;13.406;2024-02-26T10:24:30;23.27;;;15.60;;
25962;SDS011;13760;52.588;13.406;2024-02-26T10:26:56;20.77;;;15.38;;
25962;SDS011;13760;52.588;13.406;2024-02-26T10:29:23;26.27;;;14.52;;
25962;SDS011;13760;52.588;13.406;2024-02-26T10:31:50;21.02;;;14.18;;
25962;SDS011;13760;52.588;13.406;2024-02-26T10:34:17;21.27;;;13.95;;
25962;SDS011;13760;52.588;13.406;2024-02-26T10:36:43;18.70;;;13.65;;
25962;SDS011;13760;52.588;13.406;2024-02-26T10:39:09;18.30;;;13.30;;
25962;SDS011;13760;52.588;13.406;2024-02-26T10:41:37;21.17;;;14.20;;
25962;SDS011;13760;52.588;13.406;2024-02-26T10:44:03;22.30;;;14.20;;
25962;SDS011;13760;52.588;13.406;2024-02-26T10:46:29;27.58;;;17.13;;
25962;SDS011;13760;52.588;13.406;2024-02-26T10:48:55;21.88;;;14.30;;
25962;SDS011;13760;52.588;13.406;2024-02-26T10:51:28;28.27;;;16.17;;
25962;SDS011;13760;52.588;13.406;2024-02-26T10:53:56;19.05;;;12.93;;
25962;SDS011;13760;52.588;13.406;2024-02-26T10:56:27;17.10;;;12.50;;
25962;SDS011;13760;52.588;13.406;2024-02-26T10:58:57;14.68;;;9.48;;
25962;SDS011;13760;52.588;13.406;2024-02-26T11:01:24;18.70;;;11.82;;
25962;SDS011;13760;52.588;13.406;2024-02-26T11:03:52;16.23;;;11.55;;
25962;SDS011;13760;52.588;13.406;2024-02-26T11:06:21;21.00;;;11.95;;
25962;SDS011;13760;52.588;13.406;2024-02-26T11:08:50;15.43;;;11.05;;
25962;SDS011;13760;52.588;13.406;2024-02-26T11:11:16;17.48;;;11.60;;
25962;SDS011;13760;52.588;13.406;2024-02-26T11:13:46;15.90;;;11.13;;
25962;SDS011;13760;52.588;13.406;2024-02-26T11:16:18;18.92;;;11.85;;
25962;SDS011;13760;52.588;13.406;2024-02-26T11:18:48;16.50;;;10.93;;
25962;SDS011;13760;52.588;13.406;2024-02-26T11:21:17;17.92;;;11.82;;
25962;SDS011;13760;52.588;13.406;2024-02-26T11:23:45;18.33;;;11.20;;
25962;SDS011;13760;52.588;13.406;2024-02-26T11:26:11;17.00;;;10.93;;
25962;SDS011;13760;52.588;13.406;2024-02-26T11:28:40;17.17;;;11.68;;
25962;SDS011;13760;52.588;13.406;2024-02-26T11:31:06;17.67;;;11.98;;
25962;SDS011;13760;52.588;13.406;2024-02-26T11:33:32;15.73;;;12.00;;
25962;SDS011;13760;52.588;13.406;2024-02-26T11:36:00;18.90;;;12.82;;
25962;SDS011;13760;52.588;13.406;2024-02-26T11:38:36;18.05;;;12.85;;
25962;SDS011;13760;52.588;13.406;2024-02-26T11:41:02;19.27;;;13.30;;
25962;SDS011;13760;52.588;13.406;2024-02-26T11:46:28;18.85;;;13.75;;
25962;SDS011;13760;52.588;13.406;2024-02-26T11:48:59;18.50;;;13.55;;
25962;SDS011;13760;52.588;13.406;2024-02-26T11:51:27;21.30;;;14.40;;
25962;SDS011;13760;52.588;13.406;2024-02-26T11:53:56;19.42;;;13.32;;
25962;SDS011;13760;52.588;13.406;2024-02-26T11:56:23;22.50;;;13.88;;
25962;SDS011;13760;52.588;13.406;2024-02-26T11:59:04;22.67;;;14.20;;
25962;SDS011;13760;52.588;13.406;2024-02-26T12:01:48;17.92;;;13.60;;
25962;SDS011;13760;52.588;13.406;2024-02-26T12:06:51;19.48;;;12.65;;
25962;SDS011;13760;52.588;13.406;2024-02-26T12:12:17;17.13;;;11.70;;
25962;SDS011;13760;52.588;13.406;2024-02-26T12:14:50;17.52;;;11.95;;
25962;SDS011;13760;52.588;13.406;2024-02-26T12:17:22;15.77;;;11.25;;
25962;SDS011;13760;52.588;13.406;2024-02-26T12:19:49;12.68;;;9.60;;
25962;SDS011;13760;52.588;13.406;2024-02-26T12:22:15;12.95;;;9.25;;
25962;SDS011;13760;52.588;13.406;2024-02-26T12:24:41;13.98;;;9.43;;
25962;SDS011;13760;52.588;13.406;2024-02-26T12:27:07;14.25;;;8.88;;
25962;SDS011;13760;52.588;13.406;2024-02-26T12:29:33;10.77;;;7.82;;
25962;SDS011;13760;52.588;13.406;2024-02-26T12:31:58;11.70;;;7.72;;
25962;SDS011;13760;52.588;13.406;2024-02-26T12:34:28;10.70;;;7.22;;
25962;SDS011;13760;52.588;13.406;2024-02-26T12:36:58;8.52;;;6.45;;
25962;SDS011;13760;52.588;13.406;2024-02-26T12:39:33;8.27;;;6.40;;
25962;SDS011;13760;52.588;13.406;2024-02-26T12:42:06;11.82;;;6.90;;
25962;SDS011;13760;52.588;13.406;2024-02-26T12:44:32;11.50;;;6.68;;
25962;SDS011;13760;52.588;13.406;2024-02-26T12:47:01;12.07;;;6.00;;
25962;SDS011;13760;52.588;13.406;2024-02-26T12:49:30;9.48;;;5.88;;
25962;SDS011;13760;52.588;13.406;2024-02-26T12:51:56;8.90;;;6.05;;
25962;SDS011;13760;52.588;13.406;2024-02-26T12:54:32;9.07;;;5.80;;
25962;SDS011;13760;52.588;13.406;2024-02-26T12:57:00;9.15;;;5.63;;
25962;SDS011;13760;52.588;13.406;2024-02-26T12:59:27;9.13;;;5.70;;
25962;SDS011;13760;52.588;13.406;2024-02-26T13:01:52;10.68;;;5.60;;
25962;SDS011;13760;52.588;13.406;2024-02-26T13:04:18;10.75;;;4.78;;
25962;SDS011;13760;52.588;13.406;2024-02-26T13:06:44;8.35;;;4.50;;
25962;SDS011;13760;52.588;13.406;2024-02-26T13:09:12;8.63;;;4.68;;
25962;SDS011;13760;52.588;13.406;2024-02-26T13:11:41;5.88;;;3.95;;
25962;SDS011;13760;52.588;13.406;2024-02-26T13:14:07;8.43;;;4.03;;
25962;SDS011;13760;52.588;13.406;2024-02-26T13:16:33;7.35;;;4.60;;
25962;SDS011;13760;52.588;13.406;2024-02-26T13:19:09;6.75;;;4.28;;
25962;SDS011;13760;52.588;13.406;2024-02-26T13:21:35;5.90;;;3.90;;
25962;SDS011;13760;52.588;13.406;2024-02-26T13:24:01;6.47;;;3.50;;
25962;SDS011;13760;52.588;13.406;2024-02-26T13:26:26;6.20;;;3.88;;
25962;SDS011;13760;52.588;13.406;2024-02-26T13:28:59;7.78;;;3.53;;
25962;SDS011;13760;52.588;13.406;2024-02-26T13:31:25;6.00;;;3.30;;
25962;SDS011;13760;52.588;13.406;2024-02-26T13:33:51;6.13;;;3.58;;
25962;SDS011;13760;52.588;13.406;2024-02-26T13:36:20;7.32;;;4.30;;
25962;SDS011;13760;52.588;13.406;2024-02-26T13:38:52;6.40;;;3.70;;
25962;SDS011;13760;52.588;13.406;2024-02-26T13:41:19;8.52;;;4.15;;
25962;SDS011;13760;52.588;13.406;2024-02-26T13:43:48;5.65;;;3.85;;
25962;SDS011;13760;52.588;13.406;2024-02-26T13:46:15;7.05;;;3.60;;
25962;SDS011;13760;52.588;13.406;2024-02-26T13:48:42;6.88;;;4.00;;
25962;SDS011;13760;52.588;13.406;2024-02-26T13:51:08;7.15;;;4.05;;
25962;SDS011;13760;52.588;13.406;2024-02-26T13:53:34;7.13;;;4.10;;
25962;SDS011;13760;52.588;13.406;2024-02-26T13:56:00;6.82;;;3.63;;
25962;SDS011;13760;52.588;13.406;2024-02-26T13:58:26;7.35;;;4.07;;
25962;SDS011;13760;52.588;13.406;2024-02-26T14:00:55;8.70;;;4.22;;
25962;SDS011;13760;52.588;13.406;2024-02-26T14:03:21;6.20;;;3.83;;
25962;SDS011;13760;52.588;13.406;2024-02-26T14:05:47;9.10;;;4.20;;
25962;SDS011;13760;52.588;13.406;2024-02-26T14:08:13;8.43;;;4.00;;
25962;SDS011;13760;52.588;13.406;2024-02-26T14:10:38;6.43;;;4.20;;
25962;SDS011;13760;52.588;13.406;2024-02-26T14:13:04;7.07;;;4.18;;
25962;SDS011;13760;52.588;13.406;2024-02-26T14:15:30;6.50;;;4.18;;
25962;SDS011;13760;52.588;13.406;2024-02-26T14:17:55;9.57;;;4.15;;
25962;SDS011;13760;52.588;13.406;2024-02-26T14:20:22;8.98;;;4.88;;
25962;SDS011;13760;52.588;13.406;2024-02-26T14:22:49;8.35;;;4.95;;
25962;SDS011;13760;52.588;13.406;2024-02-26T14:25:16;8.38;;;4.63;;